Time;durP1;ratioP1;P1;durP2;ratioP2;P2;SDS_P1;SDS_P2;PMS_P1;PMS_P2;Temp;Humidity;BMP_temperature;BMP_pressure;BME280_temperature;BME280_humidity;BME280_pressure;Samples;Min_cycle;Max_cycle;Signal;HPM_P1;HPM_P2
2024/03/06 00:02:13;;;;;;;;;;;10.50;55.00;;;;;;5040479;28;19924;-75
2024/03/06 00:04:39;;;;;;;;;;;10.50;55.00;;;;;;5055544;28;19916;-70
2024/03/06 00:07:04;;;;;;;;;;;10.50;55.10;;;;;;5091123;28;20385;-76
2024/03/06 00:09:30;;;;;;;;;;;10.40;55.10;;;;;;5090682;28;19922;-75
2024/03/06 00:11:58;;;;;;;;;;;10.40;55.10;;;;;;5085044;28;19951;-75
2024/03/06 00:14:24;;;;;;;;;;;10.40;54.90;;;;;;5072547;28;19916;-71
2024/03/06 00:16:50;;;;;;;;;;;10.40;55.10;;;;;;5071302;28;19932;-70
2024/03/06 00:19:35;;;;;;;;;;;10.30;54.60;;;;;;5077999;28;19916;-76
2024/03/06 00:22:01;;;;;;;;;;;10.30;55.20;;;;;;5091554;28;20006;-74
2024/03/06 00:24:27;;;;;;;;;;;10.30;55.50;;;;;;5093083;28;19912;-70
2024/03/06 00:26:53;;;;;;;;;;;10.30;55.50;;;;;;5080483;28;19946;-75
2024/03/06 00:29:19;;;;;;;;;;;10.20;55.40;;;;;;5090873;28;20009;-70
2024/03/06 00:31:46;;;;;;;;;;;10.30;55.60;;;;;;5071495;28;19947;-76
2024/03/06 00:36:56;;;;;;;;;;;10.30;54.90;;;;;;5084304;28;19927;-76
2024/03/06 00:39:22;;;;;;;;;;;10.30;55.10;;;;;;5072638;28;19952;-70
2024/03/06 00:41:48;;;;;;;;;;;10.30;55.40;;;;;;5075188;28;20361;-70
2024/03/06 00:44:15;;;;;;;;;;;10.30;55.90;;;;;;5073114;28;20397;-70
2024/03/06 00:46:41;;;;;;;;;;;10.30;55.60;;;;;;5092088;28;19963;-70
2024/03/06 00:49:07;;;;;;;;;;;10.30;56.00;;;;;;5090804;28;19923;-76
2024/03/06 00:51:36;;;;;;;;;;;10.30;55.80;;;;;;5090847;28;19920;-70
2024/03/06 00:54:02;;;;;;;;;;;10.30;56.30;;;;;;5092603;28;19923;-76
2024/03/06 00:56:27;;;;;;;;;;;10.30;56.10;;;;;;5092435;28;19912;-70
2024/03/06 00:58:53;;;;;;;;;;;10.30;55.80;;;;;;5092403;28;19916;-76
2024/03/06 01:01:19;;;;;;;;;;;10.30;56.10;;;;;;5092294;28;20019;-71
2024/03/06 01:03:45;;;;;;;;;;;10.30;56.00;;;;;;5108195;28;19923;-76
2024/03/06 01:06:11;;;;;;;;;;;10.30;56.20;;;;;;5091156;28;19916;-70
2024/03/06 01:08:37;;;;;;;;;;;10.30;56.20;;;;;;5091186;28;19916;-76
2024/03/06 01:11:04;;;;;;;;;;;10.30;56.40;;;;;;5090713;28;19920;-76
2024/03/06 01:13:30;;;;;;;;;;;10.40;56.20;;;;;;5108022;28;20381;-70
2024/03/06 01:15:56;;;;;;;;;;;10.40;56.00;;;;;;5090913;28;19918;-74
2024/03/06 01:18:22;;;;;;;;;;;10.40;56.00;;;;;;5092453;28;20413;-70
2024/03/06 01:20:48;;;;;;;;;;;10.40;56.00;;;;;;5091454;28;19932;-75
2024/03/06 01:23:14;;;;;;;;;;;10.40;56.00;;;;;;5092155;28;19954;-69
2024/03/06 01:25:40;;;;;;;;;;;10.40;56.50;;;;;;5090783;28;19911;-70
2024/03/06 01:28:06;;;;;;;;;;;10.30;56.70;;;;;;5091209;28;20015;-76
2024/03/06 01:30:32;;;;;;;;;;;10.30;57.20;;;;;;5090630;28;19919;-69
2024/03/06 01:32:57;;;;;;;;;;;10.30;57.40;;;;;;5092716;28;19920;-70
2024/03/06 01:35:24;;;;;;;;;;;10.30;57.50;;;;;;5092091;28;20023;-74
2024/03/06 01:37:49;;;;;;;;;;;10.20;57.50;;;;;;5092653;28;19924;-76
2024/03/06 01:40:15;;;;;;;;;;;10.30;57.40;;;;;;5091602;28;19954;-75
2024/03/06 01:42:41;;;;;;;;;;;10.40;57.30;;;;;;5095332;28;19920;-70
2024/03/06 01:45:08;;;;;;;;;;;10.40;57.80;;;;;;5094999;28;20000;-70
2024/03/06 01:47:34;;;;;;;;;;;10.50;56.80;;;;;;5094946;28;20288;-75
2024/03/06 01:50:00;;;;;;;;;;;10.50;56.70;;;;;;5096114;28;19912;-70
2024/03/06 01:52:26;;;;;;;;;;;10.50;56.40;;;;;;5096055;28;20556;-75
2024/03/06 01:54:52;;;;;;;;;;;10.50;56.60;;;;;;5095022;28;19912;-72
2024/03/06 01:57:19;;;;;;;;;;;10.50;57.20;;;;;;5096129;28;19916;-75
2024/03/06 01:59:45;;;;;;;;;;;10.40;57.10;;;;;;5094887;28;19920;-70
2024/03/06 02:02:11;;;;;;;;;;;10.40;57.20;;;;;;5094106;28;19974;-76
2024/03/06 02:04:57;;;;;;;;;;;10.50;56.50;;;;;;5095708;28;19916;-76
2024/03/06 02:07:24;;;;;;;;;;;10.50;56.80;;;;;;5094583;28;19934;-70
2024/03/06 02:09:50;;;;;;;;;;;10.50;56.90;;;;;;5077808;28;19947;-70
2024/03/06 02:12:16;;;;;;;;;;;10.60;56.90;;;;;;5095652;28;20311;-73
2024/03/06 02:14:42;;;;;;;;;;;10.60;56.90;;;;;;5094406;28;19919;-70
2024/03/06 02:17:08;;;;;;;;;;;10.60;57.10;;;;;;5093914;28;19919;-70
2024/03/06 02:19:52;;;;;;;;;;;10.60;57.20;;;;;;5093983;28;20080;-71
2024/03/06 02:22:18;;;;;;;;;;;10.60;57.00;;;;;;5094939;28;20300;-70
2024/03/06 02:24:46;;;;;;;;;;;10.60;57.20;;;;;;5095497;28;19994;-76
2024/03/06 02:27:12;;;;;;;;;;;10.70;57.30;;;;;;5093733;28;20081;-76
2024/03/06 02:29:38;;;;;;;;;;;10.60;57.50;;;;;;5095122;28;20162;-69
2024/03/06 02:32:04;;;;;;;;;;;10.70;57.90;;;;;;5093400;28;20479;-70
2024/03/06 02:34:30;;;;;;;;;;;10.80;57.70;;;;;;5093757;28;19981;-70
2024/03/06 02:36:56;;;;;;;;;;;10.80;57.40;;;;;;5094053;28;19920;-76
2024/03/06 02:39:22;;;;;;;;;;;10.80;57.30;;;;;;5094190;28;20375;-75
2024/03/06 02:41:48;;;;;;;;;;;10.80;57.10;;;;;;5093279;28;19920;-75
2024/03/06 02:44:15;;;;;;;;;;;10.80;57.20;;;;;;5093803;28;19918;-75
2024/03/06 02:46:41;;;;;;;;;;;10.90;56.60;;;;;;5093706;28;19993;-70
2024/03/06 02:49:07;;;;;;;;;;;10.80;56.60;;;;;;5094999;28;19916;-75
2024/03/06 02:51:33;;;;;;;;;;;10.90;57.10;;;;;;5094387;28;19998;-75
2024/03/06 02:53:59;;;;;;;;;;;10.90;57.30;;;;;;5094821;28;20011;-75
2024/03/06 02:56:24;;;;;;;;;;;10.80;57.20;;;;;;5093328;28;19915;-76
2024/03/06 02:58:50;;;;;;;;;;;10.80;57.30;;;;;;5094619;28;19916;-69
2024/03/06 03:01:17;;;;;;;;;;;10.80;57.30;;;;;;5094156;28;19938;-75
2024/03/06 03:03:44;;;;;;;;;;;10.80;57.30;;;;;;5094691;28;19939;-69
2024/03/06 03:06:10;;;;;;;;;;;10.80;57.20;;;;;;5093194;28;19916;-70
2024/03/06 03:08:37;;;;;;;;;;;10.80;56.90;;;;;;5094458;28;19958;-75
2024/03/06 03:11:03;;;;;;;;;;;10.80;56.80;;;;;;5093069;28;19920;-75
2024/03/06 03:13:30;;;;;;;;;;;10.80;57.00;;;;;;5093495;28;19926;-75
2024/03/06 03:15:56;;;;;;;;;;;10.80;57.00;;;;;;5093179;28;19999;-70
2024/03/06 03:18:22;;;;;;;;;;;10.80;56.40;;;;;;5093158;28;19924;-70
2024/03/06 03:20:48;;;;;;;;;;;10.70;56.40;;;;;;5093715;28;20039;-75
2024/03/06 03:23:16;;;;;;;;;;;10.80;57.10;;;;;;5093101;28;19920;-69
2024/03/06 03:25:43;;;;;;;;;;;10.70;57.30;;;;;;5093126;28;20455;-75
2024/03/06 03:28:09;;;;;;;;;;;10.70;57.30;;;;;;5093089;28;19920;-70
2024/03/06 03:30:35;;;;;;;;;;;10.60;57.60;;;;;;5093751;28;20322;-70
2024/03/06 03:33:01;;;;;;;;;;;10.60;57.70;;;;;;5094359;28;20058;-76
2024/03/06 03:35:27;;;;;;;;;;;10.50;57.80;;;;;;5092807;28;20003;-75
2024/03/06 03:37:55;;;;;;;;;;;10.50;58.10;;;;;;5092950;28;19953;-70
2024/03/06 03:40:21;;;;;;;;;;;10.40;57.60;;;;;;5093408;28;19912;-75
2024/03/06 03:42:47;;;;;;;;;;;10.40;57.50;;;;;;5092863;28;19927;-74
2024/03/06 03:45:13;;;;;;;;;;;10.40;58.30;;;;;;5092360;28;19943;-70
2024/03/06 03:47:42;;;;;;;;;;;10.30;57.70;;;;;;5092310;28;19920;-75
2024/03/06 03:50:09;;;;;;;;;;;10.30;58.20;;;;;;5091992;28;19912;-75
2024/03/06 03:52:35;;;;;;;;;;;10.30;58.10;;;;;;5092465;28;19966;-75
2024/03/06 03:55:01;;;;;;;;;;;10.40;58.20;;;;;;5092296;28;19916;-70
2024/03/06 03:57:27;;;;;;;;;;;10.40;57.90;;;;;;5093519;28;20002;-70
2024/03/06 03:59:53;;;;;;;;;;;10.40;57.70;;;;;;5092438;28;19977;-70
2024/03/06 04:02:19;;;;;;;;;;;10.50;57.80;;;;;;5091803;28;19920;-76
2024/03/06 04:04:45;;;;;;;;;;;10.50;57.70;;;;;;5091188;28;19922;-75
2024/03/06 04:07:11;;;;;;;;;;;10.60;57.50;;;;;;5093132;28;19919;-69
2024/03/06 04:09:37;;;;;;;;;;;10.60;57.40;;;;;;5093187;28;19912;-70
2024/03/06 04:12:03;;;;;;;;;;;10.60;57.30;;;;;;5091411;28;19977;-70
2024/03/06 04:14:30;;;;;;;;;;;10.60;56.60;;;;;;5091871;28;19912;-69
2024/03/06 04:16:56;;;;;;;;;;;10.60;56.70;;;;;;5091840;28;19926;-70
2024/03/06 04:19:22;;;;;;;;;;;10.70;57.20;;;;;;5091860;28;19912;-70
2024/03/06 04:21:48;;;;;;;;;;;10.60;57.30;;;;;;5092759;28;19920;-76
2024/03/06 04:24:13;;;;;;;;;;;10.70;57.50;;;;;;5092854;28;19951;-70
2024/03/06 04:26:39;;;;;;;;;;;10.70;57.60;;;;;;5092795;28;19969;-75
2024/03/06 04:29:05;;;;;;;;;;;10.70;57.50;;;;;;5091554;28;19912;-70
2024/03/06 04:31:31;;;;;;;;;;;10.70;57.40;;;;;;5091149;28;20418;-75
2024/03/06 04:33:57;;;;;;;;;;;10.70;57.40;;;;;;5092678;28;20528;-75
2024/03/06 04:36:23;;;;;;;;;;;10.70;57.40;;;;;;5091399;28;20747;-75
2024/03/06 04:38:48;;;;;;;;;;;10.70;57.50;;;;;;5092611;28;20015;-76
2024/03/06 04:41:14;;;;;;;;;;;10.70;57.60;;;;;;5092130;28;19977;-76
2024/03/06 04:43:41;;;;;;;;;;;10.70;57.60;;;;;;5092852;28;20014;-70
2024/03/06 04:46:13;;;;;;;;;;;10.70;57.50;;;;;;5090989;28;19924;-75
2024/03/06 04:48:39;;;;;;;;;;;10.70;57.30;;;;;;5091502;28;20361;-75
2024/03/06 04:51:05;;;;;;;;;;;10.70;57.50;;;;;;5107655;28;20003;-70
2024/03/06 04:53:31;;;;;;;;;;;10.80;57.50;;;;;;5092886;28;19998;-70
2024/03/06 04:55:57;;;;;;;;;;;10.80;57.60;;;;;;5092361;28;20376;-74
2024/03/06 04:58:23;;;;;;;;;;;10.70;57.60;;;;;;5091208;28;20018;-74
2024/03/06 05:00:48;;;;;;;;;;;10.70;57.70;;;;;;5090507;28;19999;-70
2024/03/06 05:03:15;;;;;;;;;;;10.70;57.80;;;;;;5090992;28;19920;-70
2024/03/06 05:05:40;;;;;;;;;;;10.70;57.90;;;;;;5091055;28;19920;-70
2024/03/06 05:10:51;;;;;;;;;;;10.70;57.20;;;;;;5090785;28;19961;-70
2024/03/06 05:13:17;;;;;;;;;;;10.70;57.60;;;;;;5091055;28;19924;-76
2024/03/06 05:15:43;;;;;;;;;;;10.70;57.60;;;;;;5090041;28;20002;-74
2024/03/06 05:18:09;;;;;;;;;;;10.70;57.40;;;;;;5090868;28;20026;-70
2024/03/06 05:20:35;;;;;;;;;;;10.80;57.30;;;;;;5090273;28;19923;-75
2024/03/06 05:23:01;;;;;;;;;;;10.70;57.50;;;;;;5092252;28;20015;-70
2024/03/06 05:25:26;;;;;;;;;;;10.80;57.30;;;;;;5090578;28;19945;-74
2024/03/06 05:27:52;;;;;;;;;;;10.80;57.30;;;;;;5090577;28;20007;-72
2024/03/06 05:30:18;;;;;;;;;;;10.80;57.50;;;;;;5091437;28;20006;-75
2024/03/06 05:32:44;;;;;;;;;;;10.80;57.50;;;;;;5092137;28;20326;-75
2024/03/06 05:35:10;;;;;;;;;;;10.80;57.60;;;;;;5091918;28;20010;-70
2024/03/06 05:37:36;;;;;;;;;;;10.80;57.50;;;;;;5092073;28;20007;-70
2024/03/06 05:40:04;;;;;;;;;;;10.80;56.70;;;;;;5090369;28;19977;-69
2024/03/06 05:42:31;;;;;;;;;;;10.80;57.20;;;;;;5091642;28;19920;-70
2024/03/06 05:45:00;;;;;;;;;;;10.80;57.00;;;;;;5073655;28;19958;-70
2024/03/06 05:47:26;;;;;;;;;;;10.80;57.00;;;;;;5073786;28;20281;-76
2024/03/06 05:49:52;;;;;;;;;;;10.90;57.00;;;;;;5091672;28;19912;-70
2024/03/06 05:52:18;;;;;;;;;;;10.90;56.90;;;;;;5091342;28;19920;-75
2024/03/06 05:54:44;;;;;;;;;;;10.90;56.90;;;;;;5091698;28;19912;-70
2024/03/06 05:57:10;;;;;;;;;;;10.90;56.80;;;;;;5090222;28;20409;-76
2024/03/06 05:59:37;;;;;;;;;;;10.90;56.70;;;;;;5090257;28;20003;-76
2024/03/06 06:02:04;;;;;;;;;;;10.90;56.90;;;;;;5091261;28;20365;-70
2024/03/06 06:04:29;;;;;;;;;;;10.90;56.80;;;;;;5091372;28;20011;-70
2024/03/06 06:06:55;;;;;;;;;;;10.90;56.70;;;;;;5091519;28;20003;-76
2024/03/06 06:09:21;;;;;;;;;;;10.90;56.50;;;;;;5091464;28;19918;-76
2024/03/06 06:11:47;;;;;;;;;;;11.00;56.30;;;;;;5072673;28;20002;-70
2024/03/06 06:14:13;;;;;;;;;;;11.00;56.30;;;;;;5091351;28;19919;-71
2024/03/06 06:16:40;;;;;;;;;;;11.00;56.20;;;;;;5089995;28;19912;-76
2024/03/06 06:19:06;;;;;;;;;;;10.90;56.20;;;;;;5090082;28;19970;-70
2024/03/06 06:21:33;;;;;;;;;;;11.00;56.20;;;;;;5090945;28;19916;-70
2024/03/06 06:23:58;;;;;;;;;;;11.00;56.10;;;;;;5090333;28;19916;-70
2024/03/06 06:26:24;;;;;;;;;;;11.00;56.30;;;;;;5091473;28;19918;-70
2024/03/06 06:28:50;;;;;;;;;;;11.00;55.90;;;;;;5095096;28;20028;-70
2024/03/06 06:31:16;;;;;;;;;;;11.10;55.80;;;;;;5094957;28;20052;-76
2024/03/06 06:33:43;;;;;;;;;;;11.10;55.60;;;;;;5094077;28;20008;-76
2024/03/06 06:36:09;;;;;;;;;;;11.10;55.40;;;;;;5094908;28;20300;-70
2024/03/06 06:38:35;;;;;;;;;;;11.20;55.60;;;;;;5093918;28;19959;-76
2024/03/06 06:41:01;;;;;;;;;;;11.20;55.40;;;;;;5076132;28;20003;-76
2024/03/06 06:43:27;;;;;;;;;;;11.20;55.60;;;;;;5093686;28;19947;-75
2024/03/06 06:45:52;;;;;;;;;;;11.20;55.50;;;;;;5093519;28;20006;-76
2024/03/06 06:48:18;;;;;;;;;;;11.20;55.40;;;;;;5094888;28;19916;-71
2024/03/06 06:50:47;;;;;;;;;;;11.20;55.50;;;;;;5092852;28;20018;-70
2024/03/06 06:53:14;;;;;;;;;;;11.30;55.30;;;;;;5093664;28;20373;-70
2024/03/06 06:55:39;;;;;;;;;;;11.30;55.20;;;;;;5094526;28;19920;-70
2024/03/06 06:58:06;;;;;;;;;;;11.40;55.30;;;;;;5093100;28;19959;-76
2024/03/06 07:00:33;;;;;;;;;;;11.50;55.20;;;;;;5092821;28;19919;-76
2024/03/06 07:02:59;;;;;;;;;;;11.60;55.00;;;;;;5094435;28;19916;-75
2024/03/06 07:05:26;;;;;;;;;;;11.70;54.70;;;;;;5092881;28;19947;-76
2024/03/06 07:07:53;;;;;;;;;;;11.80;54.50;;;;;;5094561;28;19920;-70
2024/03/06 07:10:19;;;;;;;;;;;11.90;54.10;;;;;;5092648;28;19912;-75
2024/03/06 07:12:44;;;;;;;;;;;12.00;53.60;;;;;;5094679;28;20015;-70
2024/03/06 07:15:11;;;;;;;;;;;12.10;53.60;;;;;;5092996;28;20014;-76
2024/03/06 07:17:37;;;;;;;;;;;12.30;53.40;;;;;;5093148;28;19927;-75
2024/03/06 07:20:05;;;;;;;;;;;12.30;52.80;;;;;;5094295;28;19970;-70
2024/03/06 07:22:31;;;;;;;;;;;12.40;52.10;;;;;;5092569;28;19920;-76
2024/03/06 07:24:56;;;;;;;;;;;12.60;52.20;;;;;;5094196;28;20012;-76
2024/03/06 07:27:22;;;;;;;;;;;12.60;51.70;;;;;;5092413;28;19947;-76
2024/03/06 07:29:48;;;;;;;;;;;12.70;51.50;;;;;;5092651;28;19951;-71
2024/03/06 07:32:14;;;;;;;;;;;12.70;51.50;;;;;;5092205;28;20266;-75
2024/03/06 07:34:40;;;;;;;;;;;12.70;50.90;;;;;;5075717;28;19947;-70
2024/03/06 07:37:06;;;;;;;;;;;12.70;51.00;;;;;;5092424;28;19946;-76
2024/03/06 07:39:32;;;;;;;;;;;12.80;51.20;;;;;;5092642;28;19912;-76
2024/03/06 07:41:58;;;;;;;;;;;12.80;50.60;;;;;;5092052;28;19920;-70
2024/03/06 07:44:24;;;;;;;;;;;12.80;50.40;;;;;;5092298;28;19966;-76
2024/03/06 07:46:49;;;;;;;;;;;12.90;50.60;;;;;;5093538;28;19974;-70
2024/03/06 07:49:15;;;;;;;;;;;13.00;49.90;;;;;;5092244;28;19916;-76
2024/03/06 07:51:41;;;;;;;;;;;13.00;49.80;;;;;;5093102;28;20354;-76
2024/03/06 07:54:07;;;;;;;;;;;13.00;50.00;;;;;;5093407;28;20011;-76
2024/03/06 07:56:33;;;;;;;;;;;13.10;50.00;;;;;;5092173;28;20392;-75
2024/03/06 07:59:00;;;;;;;;;;;13.00;49.10;;;;;;5092103;28;19916;-76
2024/03/06 08:01:28;;;;;;;;;;;13.00;49.50;;;;;;5091438;28;19916;-75
2024/03/06 08:03:55;;;;;;;;;;;13.10;50.10;;;;;;5091873;28;19924;-69
2024/03/06 08:06:21;;;;;;;;;;;13.00;48.80;;;;;;5091682;28;19916;-69
2024/03/06 08:08:47;;;;;;;;;;;13.10;49.60;;;;;;5091890;28;19922;-76
2024/03/06 08:11:14;;;;;;;;;;;13.20;49.20;;;;;;5091334;28;20382;-70
2024/03/06 08:13:40;;;;;;;;;;;13.30;49.30;;;;;;5092103;28;20015;-70
2024/03/06 08:16:07;;;;;;;;;;;13.30;47.90;;;;;;5091735;28;20432;-70
2024/03/06 08:18:34;;;;;;;;;;;13.30;48.60;;;;;;5091798;28;19959;-76
2024/03/06 08:21:01;;;;;;;;;;;13.30;48.00;;;;;;5091263;28;20293;-70
2024/03/06 08:23:27;;;;;;;;;;;13.40;48.20;;;;;;5091863;28;19920;-76
2024/03/06 08:25:53;;;;;;;;;;;13.50;47.50;;;;;;5074745;28;19959;-69
2024/03/06 08:28:19;;;;;;;;;;;13.70;47.90;;;;;;5092876;28;19956;-75
2024/03/06 08:30:45;;;;;;;;;;;14.30;47.20;;;;;;5090991;28;20376;-76
2024/03/06 08:33:11;;;;;;;;;;;15.00;46.20;;;;;;5093128;28;20018;-70
2024/03/06 08:35:37;;;;;;;;;;;15.40;44.30;;;;;;5092726;28;19912;-70
2024/03/06 08:38:03;;;;;;;;;;;15.50;43.70;;;;;;5091655;28;19920;-70
2024/03/06 08:40:30;;;;;;;;;;;15.60;42.70;;;;;;5092104;28;19970;-75
2024/03/06 08:42:56;;;;;;;;;;;15.80;43.20;;;;;;5091465;28;20019;-76
2024/03/06 08:45:23;;;;;;;;;;;15.80;42.90;;;;;;5092300;28;19912;-74
2024/03/06 08:47:49;;;;;;;;;;;15.80;42.90;;;;;;5091249;28;19927;-70
2024/03/06 08:50:16;;;;;;;;;;;15.80;41.90;;;;;;5091714;28;19957;-75
2024/03/06 08:52:42;;;;;;;;;;;15.90;42.00;;;;;;5091244;28;19963;-70
2024/03/06 08:55:08;;;;;;;;;;;15.90;42.10;;;;;;5073970;28;19935;-70
2024/03/06 08:57:35;;;;;;;;;;;15.90;41.90;;;;;;5092603;28;19920;-70
2024/03/06 09:00:01;;;;;;;;;;;15.70;41.90;;;;;;5090960;28;19919;-71
2024/03/06 09:02:27;;;;;;;;;;;15.60;42.00;;;;;;5090684;28;20290;-75
2024/03/06 09:04:53;;;;;;;;;;;15.50;41.60;;;;;;5090833;28;20388;-75
2024/03/06 09:07:19;;;;;;;;;;;15.50;42.50;;;;;;5090982;28;20337;-76
2024/03/06 09:09:46;;;;;;;;;;;15.40;41.90;;;;;;5074040;28;20138;-75
2024/03/06 09:12:11;;;;;;;;;;;15.40;42.20;;;;;;5090251;28;19920;-76
2024/03/06 09:14:38;;;;;;;;;;;15.50;42.80;;;;;;5090929;28;19912;-69
2024/03/06 09:17:05;;;;;;;;;;;15.60;43.10;;;;;;5090693;28;20341;-70
2024/03/06 09:19:32;;;;;;;;;;;15.70;42.00;;;;;;5090727;28;19919;-70
2024/03/06 09:21:59;;;;;;;;;;;15.80;41.90;;;;;;5090289;28;19920;-69
2024/03/06 09:24:25;;;;;;;;;;;15.90;42.00;;;;;;5073801;28;19969;-70
2024/03/06 09:26:52;;;;;;;;;;;16.10;42.00;;;;;;5091947;28;19924;-75
2024/03/06 09:29:18;;;;;;;;;;;16.10;41.60;;;;;;5073611;28;19912;-74
2024/03/06 09:31:44;;;;;;;;;;;16.00;41.30;;;;;;5073168;28;20383;-76
2024/03/06 09:36:55;;;;;;;;;;;15.90;40.90;;;;;;5091921;28;19926;-70
2024/03/06 09:39:23;;;;;;;;;;;15.90;41.40;;;;;;5090450;28;20369;-76
2024/03/06 09:42:07;;;;;;;;;;;16.20;41.20;;;;;;5091606;28;20346;-76
2024/03/06 09:44:34;;;;;;;;;;;16.60;40.50;;;;;;5090776;28;20292;-70
2024/03/06 09:47:03;;;;;;;;;;;17.00;40.10;;;;;;5073544;28;19920;-75
2024/03/06 09:49:30;;;;;;;;;;;17.30;39.30;;;;;;5090656;28;19916;-70
2024/03/06 09:51:58;;;;;;;;;;;17.60;38.60;;;;;;5089874;28;19920;-72
2024/03/06 09:54:26;;;;;;;;;;;17.90;38.20;;;;;;5090442;28;20274;-70
2024/03/06 09:56:52;;;;;;;;;;;18.20;37.30;;;;;;5090322;28;20019;-71
2024/03/06 09:59:18;;;;;;;;;;;18.40;36.90;;;;;;5073399;28;19912;-74
2024/03/06 10:02:02;;;;;;;;;;;18.50;36.70;;;;;;5091915;28;19927;-75
2024/03/06 10:04:29;;;;;;;;;;;18.80;36.40;;;;;;5095676;28;20288;-70
2024/03/06 10:06:56;;;;;;;;;;;19.20;35.40;;;;;;5094232;28;19931;-76
2024/03/06 10:09:23;;;;;;;;;;;19.70;34.80;;;;;;5094013;28;19912;-70
2024/03/06 10:11:49;;;;;;;;;;;19.90;33.60;;;;;;5093647;28;19927;-76
2024/03/06 10:14:15;;;;;;;;;;;20.10;33.60;;;;;;5094244;28;19952;-69
2024/03/06 10:16:56;;;;;;;;;;;20.20;33.40;;;;;;5094021;28;19928;-75
2024/03/06 10:19:23;;;;;;;;;;;20.50;33.20;;;;;;5094017;28;19916;-69
2024/03/06 10:21:51;;;;;;;;;;;20.70;31.90;;;;;;5076428;28;19920;-75
2024/03/06 10:24:18;;;;;;;;;;;20.90;31.50;;;;;;5093939;28;19923;-76
2024/03/06 10:26:45;;;;;;;;;;;20.90;31.90;;;;;;5095103;28;19924;-70
2024/03/06 10:29:11;;;;;;;;;;;20.80;30.80;;;;;;5094962;28;19912;-69
2024/03/06 10:31:36;;;;;;;;;;;20.60;31.30;;;;;;5094965;28;19954;-74
2024/03/06 10:34:02;;;;;;;;;;;20.50;31.50;;;;;;5094902;28;20409;-76
2024/03/06 10:36:32;;;;;;;;;;;20.30;31.70;;;;;;5095175;28;19919;-76
2024/03/06 10:39:01;;;;;;;;;;;20.20;31.30;;;;;;5093911;28;19923;-75
2024/03/06 10:41:32;;;;;;;;;;;20.20;32.10;;;;;;5093174;28;19983;-70
2024/03/06 10:43:59;;;;;;;;;;;20.20;31.90;;;;;;5093562;28;20361;-76
2024/03/06 10:46:28;;;;;;;;;;;20.40;32.00;;;;;;5093361;28;19961;-76
2024/03/06 10:48:58;;;;;;;;;;;20.70;32.10;;;;;;5076763;28;20105;-70
2024/03/06 10:51:25;;;;;;;;;;;20.80;31.40;;;;;;5092819;28;20599;-70
2024/03/06 10:53:50;;;;;;;;;;;20.70;31.20;;;;;;5076587;28;19920;-75
2024/03/06 10:56:17;;;;;;;;;;;20.70;31.80;;;;;;5093413;28;20614;-74
2024/03/06 10:58:44;;;;;;;;;;;20.60;31.60;;;;;;5093200;28;19912;-70
2024/03/06 11:01:10;;;;;;;;;;;20.60;31.50;;;;;;5092873;28;19989;-76
2024/03/06 11:03:37;;;;;;;;;;;20.70;31.40;;;;;;5093308;28;20002;-70
2024/03/06 11:06:03;;;;;;;;;;;20.60;31.10;;;;;;5076543;28;20392;-76
2024/03/06 11:08:31;;;;;;;;;;;20.40;30.90;;;;;;5093240;28;20369;-75
2024/03/06 11:11:21;;;;;;;;;;;20.10;31.30;;;;;;5092759;28;19916;-75
2024/03/06 11:13:47;;;;;;;;;;;19.80;32.10;;;;;;5093331;28;19920;-75
2024/03/06 11:16:13;;;;;;;;;;;19.70;32.70;;;;;;5092898;28;20011;-70
2024/03/06 11:18:39;;;;;;;;;;;19.40;33.10;;;;;;5094101;28;20359;-75
2024/03/06 11:21:05;;;;;;;;;;;19.20;33.30;;;;;;5093694;28;19947;-76
2024/03/06 11:23:31;;;;;;;;;;;19.10;33.70;;;;;;5092815;28;19919;-70
2024/03/06 11:26:17;;;;;;;;;;;19.00;34.10;;;;;;5092655;28;19919;-75
2024/03/06 11:28:50;;;;;;;;;;;18.80;33.90;;;;;;5092816;28;19920;-70
2024/03/06 11:31:18;;;;;;;;;;;18.70;34.80;;;;;;5093718;28;19922;-76
2024/03/06 11:33:46;;;;;;;;;;;18.50;34.70;;;;;;5092736;28;19927;-71
2024/03/06 11:36:30;;;;;;;;;;;18.40;34.90;;;;;;5075423;28;20307;-75
2024/03/06 11:39:17;;;;;;;;;;;18.30;35.30;;;;;;5093977;28;19927;-75
2024/03/06 11:41:43;;;;;;;;;;;18.30;35.20;;;;;;5093410;28;19923;-70
2024/03/06 11:44:13;;;;;;;;;;;18.30;35.20;;;;;;5093728;28;20369;-70
2024/03/06 11:46:58;;;;;;;;;;;18.20;35.20;;;;;;5075309;28;19911;-70
2024/03/06 11:49:28;;;;;;;;;;;18.00;35.80;;;;;;5092191;28;19923;-74
2024/03/06 11:51:57;;;;;;;;;;;17.90;36.20;;;;;;5091960;28;19920;-75
2024/03/06 11:54:25;;;;;;;;;;;17.90;36.20;;;;;;5092185;28;20278;-76
2024/03/06 11:56:56;;;;;;;;;;;17.80;36.10;;;;;;5092268;28;19925;-74
2024/03/06 11:59:40;;;;;;;;;;;17.70;36.40;;;;;;5092379;28;19959;-70
2024/03/06 12:02:07;;;;;;;;;;;17.80;36.40;;;;;;5091606;28;20299;-70
2024/03/06 12:04:35;;;;;;;;;;;17.90;36.70;;;;;;5091821;28;19915;-70
2024/03/06 12:09:45;;;;;;;;;;;17.80;36.40;;;;;;5092187;28;19919;-70
2024/03/06 12:12:12;;;;;;;;;;;17.80;36.00;;;;;;5092685;28;20010;-76
2024/03/06 12:14:38;;;;;;;;;;;17.80;36.30;;;;;;5091830;28;19912;-70
2024/03/06 12:17:04;;;;;;;;;;;17.80;36.50;;;;;;5092888;28;19924;-76
2024/03/06 12:19:50;;;;;;;;;;;17.70;36.90;;;;;;5091725;28;19912;-75
2024/03/06 12:22:16;;;;;;;;;;;17.70;36.60;;;;;;5092698;28;19920;-76
2024/03/06 12:24:42;;;;;;;;;;;17.70;36.80;;;;;;5092413;28;19911;-70
2024/03/06 12:27:08;;;;;;;;;;;17.60;36.30;;;;;;5074310;28;19920;-76
2024/03/06 12:29:35;;;;;;;;;;;17.60;36.90;;;;;;5091555;28;19923;-76
2024/03/06 12:32:02;;;;;;;;;;;17.50;36.90;;;;;;5091036;28;19920;-75
2024/03/06 12:34:30;;;;;;;;;;;17.50;37.00;;;;;;5091290;28;19923;-76
2024/03/06 12:36:56;;;;;;;;;;;17.40;36.70;;;;;;5074600;28;19997;-75
2024/03/06 12:39:23;;;;;;;;;;;17.40;37.00;;;;;;5091330;28;20002;-76
2024/03/06 12:41:50;;;;;;;;;;;17.30;36.80;;;;;;5073925;28;19927;-76
2024/03/06 12:44:16;;;;;;;;;;;17.40;36.50;;;;;;5091327;28;19977;-76
2024/03/06 12:46:42;;;;;;;;;;;17.30;35.90;;;;;;5092280;28;19927;-70
2024/03/06 12:49:08;;;;;;;;;;;17.20;36.30;;;;;;5092420;28;20169;-71
2024/03/06 12:51:34;;;;;;;;;;;17.30;36.80;;;;;;5092079;28;19927;-76
2024/03/06 12:54:01;;;;;;;;;;;17.20;36.10;;;;;;5092416;28;19916;-76
2024/03/06 12:56:27;;;;;;;;;;;17.10;36.90;;;;;;5073964;28;20323;-69
2024/03/06 12:58:53;;;;;;;;;;;17.10;37.10;;;;;;5092319;28;19977;-75
2024/03/06 13:01:19;;;;;;;;;;;17.00;37.30;;;;;;5090467;28;19916;-75
2024/03/06 13:03:46;;;;;;;;;;;17.00;37.20;;;;;;5092406;28;19923;-75
2024/03/06 13:06:12;;;;;;;;;;;17.00;37.10;;;;;;5090628;28;20027;-70
2024/03/06 13:08:37;;;;;;;;;;;17.00;37.40;;;;;;5090993;28;19916;-75
2024/03/06 13:11:03;;;;;;;;;;;16.90;37.80;;;;;;5090584;28;20360;-70
2024/03/06 13:13:32;;;;;;;;;;;16.90;38.80;;;;;;5092656;28;19951;-70
2024/03/06 13:15:58;;;;;;;;;;;16.80;38.10;;;;;;5090856;28;19912;-75
2024/03/06 13:18:25;;;;;;;;;;;16.80;38.60;;;;;;5090846;28;20191;-70
2024/03/06 13:20:52;;;;;;;;;;;16.70;37.50;;;;;;5090398;28;19990;-75
2024/03/06 13:23:17;;;;;;;;;;;16.60;37.60;;;;;;5090786;28;19970;-70
2024/03/06 13:25:45;;;;;;;;;;;16.60;38.30;;;;;;5092185;28;19912;-70
2024/03/06 13:28:12;;;;;;;;;;;16.60;38.50;;;;;;5090430;28;20280;-70
2024/03/06 13:33:23;;;;;;;;;;;16.50;38.50;;;;;;5092156;28;19930;-70
2024/03/06 13:35:49;;;;;;;;;;;16.50;38.70;;;;;;5090402;28;20399;-70
2024/03/06 13:38:15;;;;;;;;;;;16.40;38.60;;;;;;5090018;28;20007;-75
2024/03/06 13:40:41;;;;;;;;;;;16.40;38.60;;;;;;5091359;28;19920;-76
2024/03/06 13:43:07;;;;;;;;;;;16.40;38.60;;;;;;5092058;28;20322;-76
2024/03/06 13:45:33;;;;;;;;;;;16.30;37.90;;;;;;5090341;28;19919;-76
2024/03/06 13:47:59;;;;;;;;;;;16.30;38.50;;;;;;5090400;28;20354;-75
2024/03/06 13:50:27;;;;;;;;;;;16.20;38.80;;;;;;5089955;28;19969;-76
2024/03/06 13:52:53;;;;;;;;;;;16.20;39.40;;;;;;5090495;28;20383;-75
2024/03/06 13:55:19;;;;;;;;;;;16.10;39.80;;;;;;5090367;28;19973;-73
2024/03/06 13:57:46;;;;;;;;;;;16.10;41.40;;;;;;5090348;28;19920;-70
2024/03/06 14:00:16;;;;;;;;;;;16.00;42.00;;;;;;5089914;28;19912;-76
2024/03/06 14:02:47;;;;;;;;;;;15.90;41.50;;;;;;5091885;28;19961;-69
2024/03/06 14:05:17;;;;;;;;;;;15.80;42.00;;;;;;5073810;28;20544;-70
2024/03/06 14:07:43;;;;;;;;;;;15.50;43.00;;;;;;5090217;28;19928;-75
2024/03/06 14:10:10;;;;;;;;;;;15.30;44.00;;;;;;5090988;28;19912;-76
2024/03/06 14:12:37;;;;;;;;;;;15.10;44.50;;;;;;5090542;28;19920;-75
2024/03/06 14:15:23;;;;;;;;;;;14.90;44.20;;;;;;5090130;28;19919;-71
2024/03/06 14:17:49;;;;;;;;;;;14.80;44.90;;;;;;5091709;28;20392;-69
2024/03/06 14:22:59;;;;;;;;;;;14.60;46.40;;;;;;5091589;28;20020;-70
2024/03/06 14:25:25;;;;;;;;;;;14.60;46.70;;;;;;5091368;28;19912;-74
2024/03/06 14:27:51;;;;;;;;;;;14.60;46.30;;;;;;5091337;28;19923;-75
2024/03/06 14:30:19;;;;;;;;;;;14.60;46.90;;;;;;5089501;28;19957;-75
2024/03/06 14:32:45;;;;;;;;;;;14.50;46.10;;;;;;5089941;28;19920;-69